Back to top

Riverton, WY weather

Riverton Regional Airport, Riverton, WY: 7/22/2019 13:53
Visibility10 statute milesclear sky
View 7-Day Forecast
Area Summary
Sky/CloudsSky Clear
Weather [last 24 hours]None
Pressure30.26 in.Hg (1025 hPa)
Dew Point55 °F (12.8 °C)
Relative Humidity38.5 %
Temperature82.9 °F (28.3 °C)red thermometer
Reading TimeMinimum to Maximum Temperature
6-hr ending 7/22@11:5357 °F to 77 °F (13.9 °C to 25 °C)
6-hr ending 7/22@05:5355.9 °F to 68 °F (13.3 °C to 20 °C)
6-hr ending 7/21@23:5368 °F to 84 °F (20 °C to 28.9 °C)
6-hr ending 7/21@17:5375 °F to 84.9 °F (23.9 °C to 29.4 °C)
24-hr ending 7/22@00:5355 °F to 84.9 °F (12.8 °C to 29.4 °C)
Wind5.75 MPH (5 KT) green arrow pointing 112.5 degrees
Wind FromEast/Southeast (110 Degrees)
Twilight Begins05:20Sunshine Yesterday
Sunrise05:54N/A
Sunset20:47
Twilight Ends21:20
RemarksLTG, DSNT, SW
METARKRIW 221953Z AUTO 11005KT 10SM CLR 28/13 A3026 RMK AO2 LTG DSNT SW SLP177 T02830128
Tags: